Terminal Aerodrome Forecast
Issued by NWS

Home | Current Version | Previous Version | Text Only | Print | Product List | Glossary On
Versions: 1 2 3 4 5 6 7 8 9 10 11 12 13 14 15 16 17 18 19 20 21 22 23 24 25 26 27 28
000
FTUS41 KBOX 222336
TAFBAF
TAF
KBAF 222336Z 2300/2324 20007KT P6SM SCT250
     FM230700 20005KT 6SM BR SCT250
     FM230900 20004KT 3SM BR SCT250
     FM231200 20006KT P6SM SCT250
     FM231600 21010KT P6SM SCT040 BKN250
     FM232300 21010KT P6SM BKN040=

USA.gov is the U.S. government's official web portal to all federal, state and local government web resources and services.